sensor_id;sensor_type;location;lat;lon;timestamp;P1;durP1;ratioP1;P2;durP2;ratioP2
31652;SDS011;18261;53.648;9.910;2023-06-04T00:00:06;12.43;;;3.45;;
31652;SDS011;18261;53.648;9.910;2023-06-04T00:02:33;9.32;;;3.80;;
31652;SDS011;18261;53.648;9.910;2023-06-04T00:04:59;10.20;;;4.88;;
31652;SDS011;18261;53.648;9.910;2023-06-04T00:07:25;9.57;;;4.68;;
31652;SDS011;18261;53.648;9.910;2023-06-04T00:09:52;8.95;;;3.22;;
31652;SDS011;18261;53.648;9.910;2023-06-04T00:12:18;6.75;;;3.40;;
31652;SDS011;18261;53.648;9.910;2023-06-04T00:14:44;5.20;;;2.67;;
31652;SDS011;18261;53.648;9.910;2023-06-04T00:17:10;7.45;;;3.10;;
31652;SDS011;18261;53.648;9.910;2023-06-04T00:19:38;10.02;;;2.85;;
31652;SDS011;18261;53.648;9.910;2023-06-04T00:22:05;8.38;;;3.25;;
31652;SDS011;18261;53.648;9.910;2023-06-04T00:24:31;6.78;;;2.53;;
31652;SDS011;18261;53.648;9.910;2023-06-04T00:26:57;7.75;;;2.80;;
31652;SDS011;18261;53.648;9.910;2023-06-04T00:29:23;8.63;;;2.72;;
31652;SDS011;18261;53.648;9.910;2023-06-04T00:31:49;9.25;;;3.22;;
31652;SDS011;18261;53.648;9.910;2023-06-04T00:34:16;7.30;;;3.08;;
31652;SDS011;18261;53.648;9.910;2023-06-04T00:36:43;6.97;;;3.15;;
31652;SDS011;18261;53.648;9.910;2023-06-04T00:39:09;8.68;;;3.00;;
31652;SDS011;18261;53.648;9.910;2023-06-04T00:41:35;7.85;;;3.05;;
31652;SDS011;18261;53.648;9.910;2023-06-04T00:44:01;7.00;;;2.85;;
31652;SDS011;18261;53.648;9.910;2023-06-04T00:46:28;8.27;;;3.05;;
31652;SDS011;18261;53.648;9.910;2023-06-04T00:48:54;13.15;;;3.70;;
31652;SDS011;18261;53.648;9.910;2023-06-04T00:51:20;6.88;;;2.90;;
31652;SDS011;18261;53.648;9.910;2023-06-04T00:53:48;6.10;;;3.17;;
31652;SDS011;18261;53.648;9.910;2023-06-04T00:56:14;6.15;;;2.72;;
31652;SDS011;18261;53.648;9.910;2023-06-04T00:58:40;7.07;;;3.15;;
31652;SDS011;18261;53.648;9.910;2023-06-04T01:01:10;7.50;;;2.92;;
31652;SDS011;18261;53.648;9.910;2023-06-04T01:03:38;6.93;;;2.92;;
31652;SDS011;18261;53.648;9.910;2023-06-04T01:06:16;9.02;;;2.72;;
31652;SDS011;18261;53.648;9.910;2023-06-04T01:08:46;7.88;;;3.13;;
31652;SDS011;18261;53.648;9.910;2023-06-04T01:11:14;7.75;;;3.00;;
31652;SDS011;18261;53.648;9.910;2023-06-04T01:13:40;9.77;;;3.05;;
31652;SDS011;18261;53.648;9.910;2023-06-04T01:16:06;6.20;;;2.95;;
31652;SDS011;18261;53.648;9.910;2023-06-04T01:18:33;6.93;;;2.92;;
31652;SDS011;18261;53.648;9.910;2023-06-04T01:21:02;6.25;;;3.10;;
31652;SDS011;18261;53.648;9.910;2023-06-04T01:23:31;7.82;;;3.35;;
31652;SDS011;18261;53.648;9.910;2023-06-04T01:26:02;6.45;;;2.83;;
31652;SDS011;18261;53.648;9.910;2023-06-04T01:28:28;7.13;;;3.08;;
31652;SDS011;18261;53.648;9.910;2023-06-04T01:30:55;6.30;;;2.95;;
31652;SDS011;18261;53.648;9.910;2023-06-04T01:33:21;15.30;;;3.10;;
31652;SDS011;18261;53.648;9.910;2023-06-04T01:35:48;9.27;;;3.20;;
31652;SDS011;18261;53.648;9.910;2023-06-04T01:38:14;6.55;;;3.15;;
31652;SDS011;18261;53.648;9.910;2023-06-04T01:40:40;8.52;;;3.03;;
31652;SDS011;18261;53.648;9.910;2023-06-04T01:43:06;5.32;;;2.60;;
31652;SDS011;18261;53.648;9.910;2023-06-04T01:45:32;9.18;;;3.38;;
31652;SDS011;18261;53.648;9.910;2023-06-04T01:48:00;6.38;;;2.75;;
31652;SDS011;18261;53.648;9.910;2023-06-04T01:50:26;6.78;;;3.75;;
31652;SDS011;18261;53.648;9.910;2023-06-04T01:52:53;7.28;;;3.25;;
31652;SDS011;18261;53.648;9.910;2023-06-04T01:55:19;8.43;;;3.47;;
31652;SDS011;18261;53.648;9.910;2023-06-04T01:57:45;6.40;;;3.00;;
31652;SDS011;18261;53.648;9.910;2023-06-04T02:00:15;7.28;;;3.10;;
31652;SDS011;18261;53.648;9.910;2023-06-04T02:02:43;7.45;;;2.75;;
31652;SDS011;18261;53.648;9.910;2023-06-04T02:05:10;6.63;;;2.75;;
31652;SDS011;18261;53.648;9.910;2023-06-04T02:07:44;7.43;;;3.58;;
31652;SDS011;18261;53.648;9.910;2023-06-04T02:10:17;8.68;;;3.38;;
31652;SDS011;18261;53.648;9.910;2023-06-04T02:13:00;7.88;;;3.17;;
31652;SDS011;18261;53.648;9.910;2023-06-04T02:15:27;7.57;;;3.05;;
31652;SDS011;18261;53.648;9.910;2023-06-04T02:17:54;6.35;;;3.08;;
31652;SDS011;18261;53.648;9.910;2023-06-04T02:20:23;7.30;;;3.05;;
31652;SDS011;18261;53.648;9.910;2023-06-04T02:22:49;6.28;;;2.88;;
31652;SDS011;18261;53.648;9.910;2023-06-04T02:25:15;8.15;;;3.00;;
31652;SDS011;18261;53.648;9.910;2023-06-04T02:27:41;6.05;;;2.65;;
31652;SDS011;18261;53.648;9.910;2023-06-04T02:30:07;7.10;;;2.85;;
31652;SDS011;18261;53.648;9.910;2023-06-04T02:32:33;6.75;;;3.03;;
31652;SDS011;18261;53.648;9.910;2023-06-04T02:35:01;7.85;;;3.47;;
31652;SDS011;18261;53.648;9.910;2023-06-04T02:37:27;6.35;;;3.17;;
31652;SDS011;18261;53.648;9.910;2023-06-04T02:39:53;6.45;;;2.72;;
31652;SDS011;18261;53.648;9.910;2023-06-04T02:42:20;4.80;;;2.75;;
31652;SDS011;18261;53.648;9.910;2023-06-04T02:44:46;6.65;;;3.28;;
31652;SDS011;18261;53.648;9.910;2023-06-04T02:47:12;7.85;;;3.30;;
31652;SDS011;18261;53.648;9.910;2023-06-04T02:49:38;8.20;;;3.30;;
31652;SDS011;18261;53.648;9.910;2023-06-04T02:52:04;9.65;;;3.80;;
31652;SDS011;18261;53.648;9.910;2023-06-04T02:54:30;4.97;;;2.88;;
31652;SDS011;18261;53.648;9.910;2023-06-04T02:56:56;10.30;;;3.17;;
31652;SDS011;18261;53.648;9.910;2023-06-04T02:59:22;8.00;;;3.80;;
31652;SDS011;18261;53.648;9.910;2023-06-04T03:01:48;6.80;;;3.42;;
31652;SDS011;18261;53.648;9.910;2023-06-04T03:04:14;9.82;;;3.63;;
31652;SDS011;18261;53.648;9.910;2023-06-04T03:06:40;10.35;;;3.83;;
31652;SDS011;18261;53.648;9.910;2023-06-04T03:09:11;7.43;;;2.85;;
31652;SDS011;18261;53.648;9.910;2023-06-04T03:11:37;8.43;;;3.20;;
31652;SDS011;18261;53.648;9.910;2023-06-04T03:14:03;9.27;;;3.08;;
31652;SDS011;18261;53.648;9.910;2023-06-04T03:16:29;7.70;;;3.22;;
31652;SDS011;18261;53.648;9.910;2023-06-04T03:18:55;7.00;;;2.55;;
31652;SDS011;18261;53.648;9.910;2023-06-04T03:21:21;4.78;;;2.72;;
31652;SDS011;18261;53.648;9.910;2023-06-04T03:23:49;7.30;;;2.90;;
31652;SDS011;18261;53.648;9.910;2023-06-04T03:26:15;5.00;;;2.50;;
31652;SDS011;18261;53.648;9.910;2023-06-04T03:28:41;6.05;;;2.88;;
31652;SDS011;18261;53.648;9.910;2023-06-04T03:31:07;4.22;;;2.78;;
31652;SDS011;18261;53.648;9.910;2023-06-04T03:33:33;9.43;;;3.05;;
31652;SDS011;18261;53.648;9.910;2023-06-04T03:36:00;10.35;;;3.22;;
31652;SDS011;18261;53.648;9.910;2023-06-04T03:38:26;7.15;;;3.00;;
31652;SDS011;18261;53.648;9.910;2023-06-04T03:40:52;12.75;;;3.67;;
31652;SDS011;18261;53.648;9.910;2023-06-04T03:43:19;6.68;;;2.72;;
31652;SDS011;18261;53.648;9.910;2023-06-04T03:45:45;8.07;;;2.70;;
31652;SDS011;18261;53.648;9.910;2023-06-04T03:48:11;4.75;;;2.72;;
31652;SDS011;18261;53.648;9.910;2023-06-04T03:50:37;8.82;;;3.25;;
31652;SDS011;18261;53.648;9.910;2023-06-04T03:53:03;5.93;;;3.05;;
31652;SDS011;18261;53.648;9.910;2023-06-04T03:55:32;6.80;;;3.00;;
31652;SDS011;18261;53.648;9.910;2023-06-04T03:57:59;8.13;;;3.00;;
31652;SDS011;18261;53.648;9.910;2023-06-04T04:00:26;12.25;;;3.38;;
31652;SDS011;18261;53.648;9.910;2023-06-04T04:02:52;6.97;;;3.10;;
31652;SDS011;18261;53.648;9.910;2023-06-04T04:05:18;7.38;;;3.20;;
31652;SDS011;18261;53.648;9.910;2023-06-04T04:07:44;6.85;;;3.20;;
31652;SDS011;18261;53.648;9.910;2023-06-04T04:10:12;10.75;;;3.20;;
31652;SDS011;18261;53.648;9.910;2023-06-04T04:12:38;5.63;;;2.72;;
31652;SDS011;18261;53.648;9.910;2023-06-04T04:15:04;10.10;;;3.15;;
31652;SDS011;18261;53.648;9.910;2023-06-04T04:17:30;7.78;;;2.95;;
31652;SDS011;18261;53.648;9.910;2023-06-04T04:19:56;8.63;;;3.00;;
31652;SDS011;18261;53.648;9.910;2023-06-04T04:22:22;8.40;;;3.13;;
31652;SDS011;18261;53.648;9.910;2023-06-04T04:24:48;13.68;;;3.30;;
31652;SDS011;18261;53.648;9.910;2023-06-04T04:27:14;12.80;;;3.03;;
31652;SDS011;18261;53.648;9.910;2023-06-04T04:29:40;7.57;;;2.92;;
31652;SDS011;18261;53.648;9.910;2023-06-04T04:32:07;10.13;;;3.13;;
31652;SDS011;18261;53.648;9.910;2023-06-04T04:34:37;10.57;;;3.20;;
31652;SDS011;18261;53.648;9.910;2023-06-04T04:37:04;7.05;;;2.92;;
31652;SDS011;18261;53.648;9.910;2023-06-04T04:39:33;7.63;;;3.20;;
31652;SDS011;18261;53.648;9.910;2023-06-04T04:41:59;6.72;;;2.72;;
31652;SDS011;18261;53.648;9.910;2023-06-04T04:44:25;7.32;;;2.90;;
31652;SDS011;18261;53.648;9.910;2023-06-04T04:46:51;8.93;;;3.20;;
31652;SDS011;18261;53.648;9.910;2023-06-04T04:49:19;12.18;;;3.38;;
31652;SDS011;18261;53.648;9.910;2023-06-04T04:51:46;7.97;;;2.95;;
31652;SDS011;18261;53.648;9.910;2023-06-04T04:54:12;10.63;;;3.83;;
31652;SDS011;18261;53.648;9.910;2023-06-04T04:56:38;10.32;;;3.95;;
31652;SDS011;18261;53.648;9.910;2023-06-04T04:59:04;13.13;;;3.40;;
31652;SDS011;18261;53.648;9.910;2023-06-04T05:01:30;11.25;;;3.35;;
31652;SDS011;18261;53.648;9.910;2023-06-04T05:03:56;9.85;;;3.78;;
31652;SDS011;18261;53.648;9.910;2023-06-04T05:06:22;13.98;;;3.78;;
31652;SDS011;18261;53.648;9.910;2023-06-04T05:08:48;9.13;;;3.25;;
31652;SDS011;18261;53.648;9.910;2023-06-04T05:11:14;10.93;;;3.55;;
31652;SDS011;18261;53.648;9.910;2023-06-04T05:13:40;13.52;;;3.50;;
31652;SDS011;18261;53.648;9.910;2023-06-04T05:16:09;10.20;;;3.35;;
31652;SDS011;18261;53.648;9.910;2023-06-04T05:18:37;10.60;;;3.28;;
31652;SDS011;18261;53.648;9.910;2023-06-04T05:21:06;14.82;;;4.10;;
31652;SDS011;18261;53.648;9.910;2023-06-04T05:23:32;13.75;;;3.30;;
31652;SDS011;18261;53.648;9.910;2023-06-04T05:26:02;13.98;;;3.53;;
31652;SDS011;18261;53.648;9.910;2023-06-04T05:28:28;14.40;;;4.03;;
31652;SDS011;18261;53.648;9.910;2023-06-04T05:30:54;12.75;;;3.78;;
31652;SDS011;18261;53.648;9.910;2023-06-04T05:33:28;16.75;;;4.28;;
31652;SDS011;18261;53.648;9.910;2023-06-04T05:35:55;12.20;;;3.88;;
31652;SDS011;18261;53.648;9.910;2023-06-04T05:38:23;13.40;;;3.70;;
31652;SDS011;18261;53.648;9.910;2023-06-04T05:40:53;17.52;;;4.05;;
31652;SDS011;18261;53.648;9.910;2023-06-04T05:43:20;15.60;;;3.50;;
31652;SDS011;18261;53.648;9.910;2023-06-04T05:45:46;17.85;;;3.72;;
31652;SDS011;18261;53.648;9.910;2023-06-04T05:48:12;15.30;;;3.90;;
31652;SDS011;18261;53.648;9.910;2023-06-04T05:50:38;16.63;;;3.60;;
31652;SDS011;18261;53.648;9.910;2023-06-04T05:53:04;18.17;;;4.18;;
31652;SDS011;18261;53.648;9.910;2023-06-04T05:55:30;11.77;;;3.70;;
31652;SDS011;18261;53.648;9.910;2023-06-04T05:57:56;12.88;;;3.40;;
31652;SDS011;18261;53.648;9.910;2023-06-04T06:00:22;14.90;;;3.95;;
31652;SDS011;18261;53.648;9.910;2023-06-04T06:02:52;17.73;;;3.65;;
31652;SDS011;18261;53.648;9.910;2023-06-04T06:05:18;11.68;;;3.17;;
31652;SDS011;18261;53.648;9.910;2023-06-04T06:07:44;20.20;;;3.58;;
31652;SDS011;18261;53.648;9.910;2023-06-04T06:10:10;16.70;;;3.78;;
31652;SDS011;18261;53.648;9.910;2023-06-04T06:12:37;11.38;;;3.53;;
31652;SDS011;18261;53.648;9.910;2023-06-04T06:15:03;10.35;;;2.97;;
31652;SDS011;18261;53.648;9.910;2023-06-04T06:17:29;10.20;;;3.20;;
31652;SDS011;18261;53.648;9.910;2023-06-04T06:19:55;13.38;;;3.50;;
31652;SDS011;18261;53.648;9.910;2023-06-04T06:22:22;11.77;;;3.05;;
31652;SDS011;18261;53.648;9.910;2023-06-04T06:24:48;16.67;;;3.28;;
31652;SDS011;18261;53.648;9.910;2023-06-04T06:27:14;16.40;;;3.15;;
31652;SDS011;18261;53.648;9.910;2023-06-04T06:29:41;15.00;;;2.88;;
31652;SDS011;18261;53.648;9.910;2023-06-04T06:32:07;12.93;;;3.53;;
31652;SDS011;18261;53.648;9.910;2023-06-04T06:34:33;13.98;;;3.50;;
31652;SDS011;18261;53.648;9.910;2023-06-04T06:36:59;14.27;;;3.42;;
31652;SDS011;18261;53.648;9.910;2023-06-04T06:39:25;15.90;;;3.65;;
31652;SDS011;18261;53.648;9.910;2023-06-04T06:41:51;10.43;;;2.80;;
31652;SDS011;18261;53.648;9.910;2023-06-04T06:44:17;10.48;;;3.20;;
31652;SDS011;18261;53.648;9.910;2023-06-04T06:46:43;13.10;;;3.40;;
31652;SDS011;18261;53.648;9.910;2023-06-04T06:49:09;12.50;;;2.92;;
31652;SDS011;18261;53.648;9.910;2023-06-04T06:51:35;9.82;;;3.17;;
31652;SDS011;18261;53.648;9.910;2023-06-04T06:54:01;11.93;;;2.67;;
31652;SDS011;18261;53.648;9.910;2023-06-04T06:56:27;13.80;;;2.70;;
31652;SDS011;18261;53.648;9.910;2023-06-04T06:58:53;9.32;;;2.58;;
31652;SDS011;18261;53.648;9.910;2023-06-04T07:01:21;10.27;;;2.60;;
31652;SDS011;18261;53.648;9.910;2023-06-04T07:03:47;12.50;;;2.70;;
31652;SDS011;18261;53.648;9.910;2023-06-04T07:06:12;10.98;;;2.42;;
31652;SDS011;18261;53.648;9.910;2023-06-04T07:08:39;9.40;;;2.95;;
31652;SDS011;18261;53.648;9.910;2023-06-04T07:11:05;10.45;;;3.10;;
31652;SDS011;18261;53.648;9.910;2023-06-04T07:13:31;14.43;;;3.03;;
31652;SDS011;18261;53.648;9.910;2023-06-04T07:16:00;9.73;;;2.75;;
31652;SDS011;18261;53.648;9.910;2023-06-04T07:18:25;9.90;;;3.00;;
31652;SDS011;18261;53.648;9.910;2023-06-04T07:20:51;13.07;;;2.80;;
31652;SDS011;18261;53.648;9.910;2023-06-04T07:23:18;11.32;;;2.53;;
31652;SDS011;18261;53.648;9.910;2023-06-04T07:25:44;9.18;;;2.38;;
31652;SDS011;18261;53.648;9.910;2023-06-04T07:28:10;9.85;;;3.03;;
31652;SDS011;18261;53.648;9.910;2023-06-04T07:30:36;10.65;;;2.75;;
31652;SDS011;18261;53.648;9.910;2023-06-04T07:33:03;10.15;;;2.85;;
31652;SDS011;18261;53.648;9.910;2023-06-04T07:35:29;10.73;;;2.80;;
31652;SDS011;18261;53.648;9.910;2023-06-04T07:37:55;6.43;;;2.45;;
31652;SDS011;18261;53.648;9.910;2023-06-04T07:40:21;9.77;;;2.80;;
31652;SDS011;18261;53.648;9.910;2023-06-04T07:42:47;14.15;;;2.85;;
31652;SDS011;18261;53.648;9.910;2023-06-04T07:45:13;6.65;;;2.33;;
31652;SDS011;18261;53.648;9.910;2023-06-04T07:47:39;9.07;;;2.55;;
31652;SDS011;18261;53.648;9.910;2023-06-04T07:50:06;5.95;;;2.35;;
31652;SDS011;18261;53.648;9.910;2023-06-04T07:52:32;8.43;;;2.35;;
31652;SDS011;18261;53.648;9.910;2023-06-04T07:54:58;11.40;;;2.20;;
31652;SDS011;18261;53.648;9.910;2023-06-04T07:57:25;4.88;;;1.85;;
31652;SDS011;18261;53.648;9.910;2023-06-04T07:59:51;5.43;;;1.88;;
31652;SDS011;18261;53.648;9.910;2023-06-04T08:02:17;5.40;;;1.60;;
31652;SDS011;18261;53.648;9.910;2023-06-04T08:04:44;4.95;;;1.58;;
31652;SDS011;18261;53.648;9.910;2023-06-04T08:07:11;6.72;;;1.80;;
31652;SDS011;18261;53.648;9.910;2023-06-04T08:09:37;6.43;;;1.30;;
31652;SDS011;18261;53.648;9.910;2023-06-04T08:12:03;9.15;;;1.77;;
31652;SDS011;18261;53.648;9.910;2023-06-04T08:14:29;4.50;;;1.15;;
31652;SDS011;18261;53.648;9.910;2023-06-04T08:16:56;4.55;;;1.60;;
31652;SDS011;18261;53.648;9.910;2023-06-04T08:19:23;3.97;;;1.60;;
31652;SDS011;18261;53.648;9.910;2023-06-04T08:21:49;6.55;;;1.40;;
31652;SDS011;18261;53.648;9.910;2023-06-04T08:24:15;8.13;;;1.65;;
31652;SDS011;18261;53.648;9.910;2023-06-04T08:26:41;7.10;;;1.67;;
31652;SDS011;18261;53.648;9.910;2023-06-04T08:29:09;3.88;;;1.65;;
31652;SDS011;18261;53.648;9.910;2023-06-04T08:31:35;5.15;;;1.73;;
31652;SDS011;18261;53.648;9.910;2023-06-04T08:34:01;7.78;;;2.30;;
31652;SDS011;18261;53.648;9.910;2023-06-04T08:36:30;7.03;;;1.77;;
31652;SDS011;18261;53.648;9.910;2023-06-04T08:38:57;6.75;;;1.60;;
31652;SDS011;18261;53.648;9.910;2023-06-04T08:41:30;5.88;;;1.85;;
31652;SDS011;18261;53.648;9.910;2023-06-04T08:44:00;3.80;;;1.65;;
31652;SDS011;18261;53.648;9.910;2023-06-04T08:46:27;4.68;;;1.45;;
31652;SDS011;18261;53.648;9.910;2023-06-04T08:48:54;6.93;;;1.98;;
31652;SDS011;18261;53.648;9.910;2023-06-04T08:51:21;4.18;;;1.80;;
31652;SDS011;18261;53.648;9.910;2023-06-04T08:53:48;6.80;;;1.70;;
31652;SDS011;18261;53.648;9.910;2023-06-04T08:56:19;8.23;;;2.28;;
31652;SDS011;18261;53.648;9.910;2023-06-04T08:58:47;5.13;;;1.90;;
31652;SDS011;18261;53.648;9.910;2023-06-04T09:01:13;8.82;;;2.28;;
31652;SDS011;18261;53.648;9.910;2023-06-04T09:03:39;4.50;;;1.60;;
31652;SDS011;18261;53.648;9.910;2023-06-04T09:06:06;5.10;;;1.83;;
31652;SDS011;18261;53.648;9.910;2023-06-04T09:08:34;8.68;;;2.30;;
31652;SDS011;18261;53.648;9.910;2023-06-04T09:11:01;8.63;;;2.10;;
31652;SDS011;18261;53.648;9.910;2023-06-04T09:13:30;13.55;;;2.90;;
31652;SDS011;18261;53.648;9.910;2023-06-04T09:16:03;4.68;;;2.05;;
31652;SDS011;18261;53.648;9.910;2023-06-04T09:18:30;7.30;;;2.30;;
31652;SDS011;18261;53.648;9.910;2023-06-04T09:21:03;8.20;;;1.95;;
31652;SDS011;18261;53.648;9.910;2023-06-04T09:23:31;7.43;;;2.13;;
31652;SDS011;18261;53.648;9.910;2023-06-04T09:26:05;7.95;;;1.70;;
31652;SDS011;18261;53.648;9.910;2023-06-04T09:28:31;8.80;;;1.80;;
31652;SDS011;18261;53.648;9.910;2023-06-04T09:30:57;3.60;;;1.42;;
31652;SDS011;18261;53.648;9.910;2023-06-04T09:33:23;4.72;;;1.90;;
31652;SDS011;18261;53.648;9.910;2023-06-04T09:35:55;5.28;;;1.63;;
31652;SDS011;18261;53.648;9.910;2023-06-04T09:38:21;10.70;;;2.30;;
31652;SDS011;18261;53.648;9.910;2023-06-04T09:40:47;5.45;;;2.05;;
31652;SDS011;18261;53.648;9.910;2023-06-04T09:43:23;8.52;;;2.42;;
31652;SDS011;18261;53.648;9.910;2023-06-04T09:45:49;5.10;;;2.05;;
31652;SDS011;18261;53.648;9.910;2023-06-04T09:48:19;5.72;;;2.08;;
31652;SDS011;18261;53.648;9.910;2023-06-04T09:50:46;5.70;;;2.40;;
31652;SDS011;18261;53.648;9.910;2023-06-04T09:53:13;7.45;;;1.77;;
31652;SDS011;18261;53.648;9.910;2023-06-04T09:55:39;4.45;;;1.88;;
31652;SDS011;18261;53.648;9.910;2023-06-04T09:58:05;5.68;;;1.90;;
31652;SDS011;18261;53.648;9.910;2023-06-04T10:00:31;6.85;;;2.03;;
31652;SDS011;18261;53.648;9.910;2023-06-04T10:02:59;5.15;;;1.95;;
31652;SDS011;18261;53.648;9.910;2023-06-04T10:05:27;7.88;;;2.00;;
31652;SDS011;18261;53.648;9.910;2023-06-04T10:07:54;6.63;;;1.73;;
31652;SDS011;18261;53.648;9.910;2023-06-04T10:10:23;7.80;;;1.70;;
31652;SDS011;18261;53.648;9.910;2023-06-04T10:12:54;7.10;;;1.98;;
31652;SDS011;18261;53.648;9.910;2023-06-04T10:15:22;9.13;;;2.00;;
31652;SDS011;18261;53.648;9.910;2023-06-04T10:17:48;4.43;;;1.83;;
31652;SDS011;18261;53.648;9.910;2023-06-04T10:20:15;9.55;;;2.92;;
31652;SDS011;18261;53.648;9.910;2023-06-04T10:22:44;6.15;;;2.13;;
31652;SDS011;18261;53.648;9.910;2023-06-04T10:25:11;10.85;;;2.10;;
31652;SDS011;18261;53.648;9.910;2023-06-04T10:27:37;6.25;;;1.70;;
31652;SDS011;18261;53.648;9.910;2023-06-04T10:30:04;4.40;;;1.63;;
31652;SDS011;18261;53.648;9.910;2023-06-04T10:32:30;8.55;;;2.13;;
31652;SDS011;18261;53.648;9.910;2023-06-04T10:34:56;5.63;;;1.85;;
31652;SDS011;18261;53.648;9.910;2023-06-04T10:37:23;3.70;;;1.50;;
31652;SDS011;18261;53.648;9.910;2023-06-04T10:39:53;9.50;;;1.83;;
31652;SDS011;18261;53.648;9.910;2023-06-04T10:42:19;5.43;;;1.83;;
31652;SDS011;18261;53.648;9.910;2023-06-04T10:44:53;6.80;;;2.00;;
31652;SDS011;18261;53.648;9.910;2023-06-04T10:49:46;5.53;;;1.63;;
31652;SDS011;18261;53.648;9.910;2023-06-04T10:52:12;7.55;;;2.53;;
31652;SDS011;18261;53.648;9.910;2023-06-04T10:54:38;5.13;;;2.25;;
31652;SDS011;18261;53.648;9.910;2023-06-04T10:57:13;3.53;;;1.80;;
31652;SDS011;18261;53.648;9.910;2023-06-04T10:59:40;6.38;;;1.75;;
31652;SDS011;18261;53.648;9.910;2023-06-04T11:02:06;6.85;;;1.85;;
31652;SDS011;18261;53.648;9.910;2023-06-04T11:04:33;8.48;;;2.25;;
31652;SDS011;18261;53.648;9.910;2023-06-04T11:07:05;6.22;;;1.80;;
31652;SDS011;18261;53.648;9.910;2023-06-04T11:09:35;9.85;;;2.53;;
31652;SDS011;18261;53.648;9.910;2023-06-04T11:12:02;9.25;;;2.47;;
31652;SDS011;18261;53.648;9.910;2023-06-04T11:14:28;7.88;;;2.33;;
31652;SDS011;18261;53.648;9.910;2023-06-04T11:16:54;6.18;;;1.90;;
31652;SDS011;18261;53.648;9.910;2023-06-04T11:19:20;3.95;;;1.73;;
31652;SDS011;18261;53.648;9.910;2023-06-04T11:21:47;7.35;;;2.05;;
31652;SDS011;18261;53.648;9.910;2023-06-04T11:24:13;6.45;;;1.60;;
31652;SDS011;18261;53.648;9.910;2023-06-04T11:26:39;14.88;;;2.97;;
31652;SDS011;18261;53.648;9.910;2023-06-04T11:29:06;9.75;;;2.40;;
31652;SDS011;18261;53.648;9.910;2023-06-04T11:31:42;6.25;;;1.80;;
31652;SDS011;18261;53.648;9.910;2023-06-04T11:34:08;6.43;;;2.25;;
31652;SDS011;18261;53.648;9.910;2023-06-04T11:36:36;5.07;;;1.83;;
31652;SDS011;18261;53.648;9.910;2023-06-04T11:39:03;5.63;;;1.98;;
31652;SDS011;18261;53.648;9.910;2023-06-04T11:41:33;6.82;;;1.83;;
31652;SDS011;18261;53.648;9.910;2023-06-04T11:44:03;5.93;;;1.70;;
31652;SDS011;18261;53.648;9.910;2023-06-04T11:46:29;6.03;;;1.50;;
31652;SDS011;18261;53.648;9.910;2023-06-04T11:48:56;4.13;;;1.83;;
31652;SDS011;18261;53.648;9.910;2023-06-04T11:51:22;7.35;;;1.30;;
31652;SDS011;18261;53.648;9.910;2023-06-04T11:53:48;3.33;;;1.40;;
31652;SDS011;18261;53.648;9.910;2023-06-04T11:56:14;4.72;;;1.83;;
31652;SDS011;18261;53.648;9.910;2023-06-04T11:58:40;4.53;;;1.83;;
31652;SDS011;18261;53.648;9.910;2023-06-04T12:01:07;7.72;;;2.17;;
31652;SDS011;18261;53.648;9.910;2023-06-04T12:03:37;4.38;;;1.80;;
31652;SDS011;18261;53.648;9.910;2023-06-04T12:06:16;4.68;;;1.73;;
31652;SDS011;18261;53.648;9.910;2023-06-04T12:11:25;8.48;;;2.00;;
31652;SDS011;18261;53.648;9.910;2023-06-04T12:13:56;5.30;;;2.03;;
31652;SDS011;18261;53.648;9.910;2023-06-04T12:16:23;6.78;;;1.58;;
31652;SDS011;18261;53.648;9.910;2023-06-04T12:18:49;3.22;;;1.27;;
31652;SDS011;18261;53.648;9.910;2023-06-04T12:21:22;4.63;;;1.48;;
31652;SDS011;18261;53.648;9.910;2023-06-04T12:24:13;4.72;;;1.65;;
31652;SDS011;18261;53.648;9.910;2023-06-04T12:26:39;4.97;;;1.73;;
31652;SDS011;18261;53.648;9.910;2023-06-04T12:29:14;3.28;;;1.80;;
31652;SDS011;18261;53.648;9.910;2023-06-04T12:31:41;5.03;;;1.30;;
31652;SDS011;18261;53.648;9.910;2023-06-04T12:34:07;4.50;;;2.10;;
31652;SDS011;18261;53.648;9.910;2023-06-04T12:36:33;3.97;;;1.92;;
31652;SDS011;18261;53.648;9.910;2023-06-04T12:39:00;3.30;;;1.25;;
31652;SDS011;18261;53.648;9.910;2023-06-04T12:41:27;4.03;;;1.70;;
31652;SDS011;18261;53.648;9.910;2023-06-04T12:43:53;4.63;;;1.40;;
31652;SDS011;18261;53.648;9.910;2023-06-04T12:46:19;4.63;;;1.60;;
31652;SDS011;18261;53.648;9.910;2023-06-04T12:48:46;2.75;;;1.38;;
31652;SDS011;18261;53.648;9.910;2023-06-04T12:51:12;8.07;;;1.95;;
31652;SDS011;18261;53.648;9.910;2023-06-04T12:53:39;5.45;;;1.70;;
31652;SDS011;18261;53.648;9.910;2023-06-04T12:56:05;5.35;;;1.60;;
31652;SDS011;18261;53.648;9.910;2023-06-04T12:58:31;8.30;;;2.03;;
31652;SDS011;18261;53.648;9.910;2023-06-04T13:00:57;5.10;;;2.03;;
31652;SDS011;18261;53.648;9.910;2023-06-04T13:03:23;6.95;;;2.20;;
31652;SDS011;18261;53.648;9.910;2023-06-04T13:05:49;3.13;;;1.83;;
31652;SDS011;18261;53.648;9.910;2023-06-04T13:08:16;5.45;;;1.95;;
31652;SDS011;18261;53.648;9.910;2023-06-04T13:10:42;4.78;;;1.88;;
31652;SDS011;18261;53.648;9.910;2023-06-04T13:13:08;5.40;;;2.13;;
31652;SDS011;18261;53.648;9.910;2023-06-04T13:15:34;3.78;;;1.50;;
31652;SDS011;18261;53.648;9.910;2023-06-04T13:18:00;5.03;;;1.98;;
31652;SDS011;18261;53.648;9.910;2023-06-04T13:20:28;3.55;;;1.58;;
31652;SDS011;18261;53.648;9.910;2023-06-04T13:22:54;5.47;;;1.80;;
31652;SDS011;18261;53.648;9.910;2023-06-04T13:25:20;5.05;;;1.90;;
31652;SDS011;18261;53.648;9.910;2023-06-04T13:27:46;5.85;;;2.22;;
31652;SDS011;18261;53.648;9.910;2023-06-04T13:30:12;6.60;;;2.17;;
31652;SDS011;18261;53.648;9.910;2023-06-04T13:32:39;2.95;;;1.60;;
31652;SDS011;18261;53.648;9.910;2023-06-04T13:35:05;4.25;;;1.90;;
31652;SDS011;18261;53.648;9.910;2023-06-04T13:37:31;8.55;;;1.98;;
31652;SDS011;18261;53.648;9.910;2023-06-04T13:39:57;7.75;;;2.28;;
31652;SDS011;18261;53.648;9.910;2023-06-04T13:42:23;7.13;;;2.22;;
31652;SDS011;18261;53.648;9.910;2023-06-04T13:44:49;7.00;;;2.00;;
31652;SDS011;18261;53.648;9.910;2023-06-04T13:47:15;6.03;;;1.98;;
31652;SDS011;18261;53.648;9.910;2023-06-04T13:49:43;3.88;;;1.75;;
31652;SDS011;18261;53.648;9.910;2023-06-04T13:52:09;7.15;;;2.55;;
31652;SDS011;18261;53.648;9.910;2023-06-04T13:54:35;4.15;;;2.10;;
31652;SDS011;18261;53.648;9.910;2023-06-04T13:57:01;4.53;;;2.30;;
31652;SDS011;18261;53.648;9.910;2023-06-04T13:59:28;4.57;;;1.52;;
31652;SDS011;18261;53.648;9.910;2023-06-04T14:01:56;6.88;;;1.67;;
31652;SDS011;18261;53.648;9.910;2023-06-04T14:04:22;4.25;;;1.73;;
31652;SDS011;18261;53.648;9.910;2023-06-04T14:06:48;5.28;;;1.70;;
31652;SDS011;18261;53.648;9.910;2023-06-04T14:09:14;4.53;;;1.85;;
31652;SDS011;18261;53.648;9.910;2023-06-04T14:11:41;5.22;;;2.70;;
31652;SDS011;18261;53.648;9.910;2023-06-04T14:14:07;4.05;;;1.90;;
31652;SDS011;18261;53.648;9.910;2023-06-04T14:16:33;5.82;;;2.22;;
31652;SDS011;18261;53.648;9.910;2023-06-04T14:18:59;3.20;;;1.70;;
31652;SDS011;18261;53.648;9.910;2023-06-04T14:21:26;3.10;;;2.00;;
31652;SDS011;18261;53.648;9.910;2023-06-04T14:23:53;4.28;;;1.75;;
31652;SDS011;18261;53.648;9.910;2023-06-04T14:26:19;4.10;;;1.73;;
31652;SDS011;18261;53.648;9.910;2023-06-04T14:28:45;3.83;;;1.70;;
31652;SDS011;18261;53.648;9.910;2023-06-04T14:31:11;4.50;;;2.08;;
31652;SDS011;18261;53.648;9.910;2023-06-04T14:33:37;4.40;;;1.58;;
31652;SDS011;18261;53.648;9.910;2023-06-04T14:36:03;3.80;;;1.90;;
31652;SDS011;18261;53.648;9.910;2023-06-04T14:38:30;4.70;;;2.38;;
31652;SDS011;18261;53.648;9.910;2023-06-04T14:40:56;5.78;;;2.13;;
31652;SDS011;18261;53.648;9.910;2023-06-04T14:43:22;3.53;;;1.77;;
31652;SDS011;18261;53.648;9.910;2023-06-04T14:45:48;4.43;;;1.75;;
31652;SDS011;18261;53.648;9.910;2023-06-04T14:48:14;3.08;;;1.63;;